Time;durP1;ratioP1;P1;durP2;ratioP2;P2;SDS_P1;SDS_P2;PMS_P1;PMS_P2;Temp;Humidity;BMP_temperature;BMP_pressure;BME280_temperature;BME280_humidity;BME280_pressure;Samples;Min_cycle;Max_cycle;Signal;HPM_P1;HPM_P2
2023/09/18 00:00:51;;;;;;;473.90;235.83;;;;;;;;;;4975866;28;20194;-56
2023/09/18 00:03:20;;;;;;;486.13;244.97;;;;;;;;;;4965259;28;20486;-56
2023/09/18 00:05:47;;;;;;;529.73;277.97;;;;;;;;;;4965557;28;20245;-56
2023/09/18 00:08:13;;;;;;;561.60;292.47;;;;;;;;;;4959855;28;20217;-56
2023/09/18 00:10:40;;;;;;;622.93;334.17;;;;;;;;;;4958876;28;20236;-56
2023/09/18 00:13:06;;;;;;;512.13;261.63;;;;;;;;;;4959265;28;20278;-56
2023/09/18 00:15:32;;;;;;;506.43;257.83;;;;;;;;;;4961288;28;20189;-56
2023/09/18 00:17:58;;;;;;;497.93;254.13;;;;;;;;;;4970208;28;21222;-56
2023/09/18 00:20:26;;;;;;;509.20;268.67;;;;;;;;;;4979096;28;20240;-57
2023/09/18 00:22:54;;;;;;;508.30;258.87;;;;;;;;;;4978420;28;20246;-56
2023/09/18 00:25:20;;;;;;;477.90;241.80;;;;;;;;;;4982393;28;20295;-56
2023/09/18 00:27:46;;;;;;;555.53;285.20;;;;;;;;;;4961536;28;20242;-56
2023/09/18 00:30:12;;;;;;;575.37;297.63;;;;;;;;;;4959641;28;20201;-56
2023/09/18 00:32:38;;;;;;;492.13;246.83;;;;;;;;;;4960865;28;20714;-57
2023/09/18 00:35:04;;;;;;;530.33;273.23;;;;;;;;;;4963415;28;20305;-56
2023/09/18 00:37:30;;;;;;;518.03;261.90;;;;;;;;;;4965646;28;20213;-57
2023/09/18 00:39:56;;;;;;;457.37;230.27;;;;;;;;;;4963373;28;20201;-56
2023/09/18 00:42:22;;;;;;;505.63;251.43;;;;;;;;;;4960483;28;20188;-56
2023/09/18 00:44:50;;;;;;;476.77;239.87;;;;;;;;;;4962749;28;20225;-56
2023/09/18 00:47:16;;;;;;;500.07;248.40;;;;;;;;;;4949398;28;20246;-56
2023/09/18 00:49:43;;;;;;;462.67;227.80;;;;;;;;;;4959729;28;20743;-56
2023/09/18 00:52:10;;;;;;;579.47;294.93;;;;;;;;;;4970608;28;20213;-56
2023/09/18 00:54:36;;;;;;;555.83;283.83;;;;;;;;;;4961900;28;20228;-56
2023/09/18 00:57:02;;;;;;;525.93;263.03;;;;;;;;;;4959049;28;20229;-57
2023/09/18 00:59:28;;;;;;;508.47;258.80;;;;;;;;;;4957991;28;20225;-56
2023/09/18 01:01:54;;;;;;;483.07;245.90;;;;;;;;;;4960770;28;20233;-56
2023/09/18 01:04:20;;;;;;;469.53;234.60;;;;;;;;;;4962047;28;20308;-56
2023/09/18 01:06:48;;;;;;;526.27;262.30;;;;;;;;;;4962992;28;20188;-56
2023/09/18 01:09:16;;;;;;;581.67;295.33;;;;;;;;;;4959299;28;20197;-56
2023/09/18 01:11:48;;;;;;;515.20;256.80;;;;;;;;;;4959216;28;20241;-56
2023/09/18 01:14:32;;;;;;;548.13;276.40;;;;;;;;;;4954634;28;20321;-56
2023/09/18 01:16:59;;;;;;;498.90;246.90;;;;;;;;;;4963585;28;20908;-56
2023/09/18 01:19:51;;;;;;;543.40;275.80;;;;;;;;;;4955574;28;20214;-56
2023/09/18 01:22:18;;;;;;;480.20;235.37;;;;;;;;;;4961239;28;20209;-56
2023/09/18 01:24:44;;;;;;;497.77;245.30;;;;;;;;;;4969822;28;20264;-56
2023/09/18 01:27:13;;;;;;;569.27;286.60;;;;;;;;;;4957786;28;20224;-56
2023/09/18 01:29:39;;;;;;;477.30;234.27;;;;;;;;;;4962523;28;20650;-56
2023/09/18 01:32:05;;;;;;;537.07;269.57;;;;;;;;;;4947192;28;20777;-56
2023/09/18 01:34:37;;;;;;;486.67;240.60;;;;;;;;;;4966171;28;20216;-56
2023/09/18 01:37:04;;;;;;;528.40;274.07;;;;;;;;;;4959324;28;20545;-56
2023/09/18 01:39:32;;;;;;;504.87;255.13;;;;;;;;;;4966825;28;20941;-57
2023/09/18 01:42:01;;;;;;;513.63;254.70;;;;;;;;;;4959065;28;20218;-57
2023/09/18 01:44:28;;;;;;;512.07;252.57;;;;;;;;;;4965531;28;21075;-56
2023/09/18 01:46:55;;;;;;;528.23;260.43;;;;;;;;;;4961077;28;20720;-57
2023/09/18 01:49:28;;;;;;;520.20;263.20;;;;;;;;;;4964745;28;20756;-57
2023/09/18 01:51:54;;;;;;;467.57;229.07;;;;;;;;;;4939674;28;20277;-56
2023/09/18 01:54:20;;;;;;;511.27;258.33;;;;;;;;;;4962570;28;20237;-57
2023/09/18 01:56:46;;;;;;;462.87;227.93;;;;;;;;;;4965045;28;20213;-57
2023/09/18 01:59:12;;;;;;;500.30;253.10;;;;;;;;;;4957985;28;20218;-57
2023/09/18 02:01:38;;;;;;;479.20;233.30;;;;;;;;;;4958208;28;20237;-57
2023/09/18 02:04:04;;;;;;;530.33;259.90;;;;;;;;;;4959744;28;20839;-57
2023/09/18 02:06:30;;;;;;;501.47;245.30;;;;;;;;;;4963814;28;20220;-57
2023/09/18 02:08:56;;;;;;;485.50;233.63;;;;;;;;;;4958271;28;20217;-57
2023/09/18 02:11:22;;;;;;;525.83;266.63;;;;;;;;;;4958232;28;20363;-57
2023/09/18 02:13:48;;;;;;;445.93;217.23;;;;;;;;;;4960589;28;20316;-57
2023/09/18 02:16:14;;;;;;;518.47;252.23;;;;;;;;;;4973434;28;20220;-56
2023/09/18 02:18:40;;;;;;;502.30;249.13;;;;;;;;;;4974625;28;20205;-57
2023/09/18 02:21:06;;;;;;;517.23;252.80;;;;;;;;;;4984378;28;20216;-57
2023/09/18 02:23:32;;;;;;;504.20;247.57;;;;;;;;;;4980484;28;20299;-57
2023/09/18 02:25:59;;;;;;;474.23;229.77;;;;;;;;;;4983521;28;20329;-56
2023/09/18 02:28:25;;;;;;;481.17;236.93;;;;;;;;;;4960677;28;20273;-56
2023/09/18 02:30:51;;;;;;;467.80;233.30;;;;;;;;;;4956708;28;20233;-56
2023/09/18 02:33:17;;;;;;;556.23;282.63;;;;;;;;;;4962153;28;20196;-56
2023/09/18 02:35:43;;;;;;;486.80;240.67;;;;;;;;;;4956703;28;20584;-56
2023/09/18 02:38:09;;;;;;;557.40;280.47;;;;;;;;;;4960052;28;20231;-57
2023/09/18 02:40:35;;;;;;;547.43;273.20;;;;;;;;;;4955861;28;20213;-56
2023/09/18 02:43:02;;;;;;;597.50;304.97;;;;;;;;;;4962380;28;20184;-56
2023/09/18 02:45:28;;;;;;;468.13;229.70;;;;;;;;;;4964217;28;20213;-57
2023/09/18 02:47:54;;;;;;;487.83;235.47;;;;;;;;;;4963976;28;20639;-57
2023/09/18 02:50:20;;;;;;;604.03;309.93;;;;;;;;;;4958016;28;20271;-57
2023/09/18 02:52:46;;;;;;;555.63;281.47;;;;;;;;;;4954345;28;20213;-57
2023/09/18 02:55:13;;;;;;;509.93;253.97;;;;;;;;;;4965709;28;20276;-57
2023/09/18 02:57:39;;;;;;;441.40;213.13;;;;;;;;;;4961727;28;20636;-56
2023/09/18 03:00:05;;;;;;;525.27;258.33;;;;;;;;;;4959492;28;20233;-57
2023/09/18 03:02:31;;;;;;;602.73;305.50;;;;;;;;;;4953414;28;20241;-57
2023/09/18 03:04:57;;;;;;;521.57;256.43;;;;;;;;;;4965985;28;21236;-57
2023/09/18 03:07:23;;;;;;;535.63;270.03;;;;;;;;;;4948964;28;20209;-57
2023/09/18 03:09:49;;;;;;;577.30;296.37;;;;;;;;;;4957861;28;20290;-57
2023/09/18 03:12:15;;;;;;;502.87;248.60;;;;;;;;;;4957717;28;20307;-57
2023/09/18 03:14:41;;;;;;;504.60;251.67;;;;;;;;;;4961649;28;20209;-57
2023/09/18 03:17:07;;;;;;;508.93;243.23;;;;;;;;;;4961218;28;20218;-57
2023/09/18 03:19:33;;;;;;;492.90;238.03;;;;;;;;;;4961416;28;20346;-56
2023/09/18 03:21:59;;;;;;;493.00;239.80;;;;;;;;;;4969944;28;20558;-57
2023/09/18 03:24:25;;;;;;;510.00;255.43;;;;;;;;;;4961433;28;20691;-57
2023/09/18 03:26:51;;;;;;;544.13;271.70;;;;;;;;;;4952052;28;20259;-57
2023/09/18 03:29:17;;;;;;;551.40;272.43;;;;;;;;;;4965124;28;20525;-57
2023/09/18 03:31:43;;;;;;;467.63;228.77;;;;;;;;;;4975157;28;20708;-57
2023/09/18 03:34:09;;;;;;;505.87;246.87;;;;;;;;;;4974215;28;20831;-56
2023/09/18 03:36:36;;;;;;;487.77;238.30;;;;;;;;;;4976068;28;20243;-57
2023/09/18 03:39:02;;;;;;;489.70;240.73;;;;;;;;;;4974316;28;20785;-57
2023/09/18 03:41:33;;;;;;;459.13;221.87;;;;;;;;;;4959698;28;20225;-57
2023/09/18 03:43:59;;;;;;;503.93;243.87;;;;;;;;;;4956271;28;20221;-56
2023/09/18 03:46:25;;;;;;;524.73;265.23;;;;;;;;;;4961047;28;20240;-57
2023/09/18 03:48:51;;;;;;;514.50;257.57;;;;;;;;;;4972312;28;20260;-57
2023/09/18 03:51:18;;;;;;;471.70;229.87;;;;;;;;;;4957984;28;20201;-57
2023/09/18 03:53:44;;;;;;;502.43;241.17;;;;;;;;;;4962985;28;20662;-56
2023/09/18 03:56:10;;;;;;;535.50;259.93;;;;;;;;;;4959948;28;20221;-56
2023/09/18 03:58:36;;;;;;;529.50;258.23;;;;;;;;;;4961107;28;20242;-56
2023/09/18 04:01:02;;;;;;;483.20;227.53;;;;;;;;;;4959498;28;20194;-56
2023/09/18 04:03:28;;;;;;;487.13;234.33;;;;;;;;;;4963644;28;20189;-56
2023/09/18 04:05:54;;;;;;;474.20;231.10;;;;;;;;;;4962325;28;20883;-57
2023/09/18 04:08:20;;;;;;;543.07;265.80;;;;;;;;;;4964763;28;20696;-57
2023/09/18 04:13:37;;;;;;;521.20;287.57;;;;;;;;;;5013212;28;20612;-50
2023/09/18 04:16:03;;;;;;;471.73;245.13;;;;;;;;;;4989871;28;20190;-50
2023/09/18 04:18:29;;;;;;;452.33;236.53;;;;;;;;;;4998657;28;20211;-50
2023/09/18 04:20:55;;;;;;;454.17;239.30;;;;;;;;;;5009376;28;20223;-50
2023/09/18 04:23:25;;;;;;;480.20;260.33;;;;;;;;;;5012428;28;20353;-50
2023/09/18 04:25:52;;;;;;;519.23;273.83;;;;;;;;;;5007392;28;20883;-50
2023/09/18 04:28:19;;;;;;;459.70;242.57;;;;;;;;;;5014255;28;20234;-50
2023/09/18 04:30:45;;;;;;;482.73;248.57;;;;;;;;;;5007250;28;20549;-50
2023/09/18 04:33:12;;;;;;;519.93;281.83;;;;;;;;;;5017266;28;20180;-50
2023/09/18 04:35:39;;;;;;;484.80;254.70;;;;;;;;;;5012777;28;20226;-49
2023/09/18 04:38:05;;;;;;;466.97;242.57;;;;;;;;;;5018694;28;20704;-50
2023/09/18 04:40:32;;;;;;;492.37;263.83;;;;;;;;;;5002543;28;20296;-49
2023/09/18 04:42:58;;;;;;;490.23;261.77;;;;;;;;;;5002782;28;20963;-49
2023/09/18 04:45:25;;;;;;;510.73;278.73;;;;;;;;;;5010188;28;20186;-49
2023/09/18 04:47:50;;;;;;;463.47;245.87;;;;;;;;;;5011588;28;20306;-49
2023/09/18 04:50:16;;;;;;;499.90;266.37;;;;;;;;;;5012403;28;20217;-50
2023/09/18 04:52:43;;;;;;;508.93;270.73;;;;;;;;;;5020578;28;20314;-50
2023/09/18 04:55:10;;;;;;;501.70;263.83;;;;;;;;;;5017295;28;20223;-50
2023/09/18 04:57:36;;;;;;;461.43;244.93;;;;;;;;;;5020228;28;20255;-49
2023/09/18 05:00:02;;;;;;;454.27;237.87;;;;;;;;;;5011245;28;20385;-50
2023/09/18 05:02:30;;;;;;;502.60;271.77;;;;;;;;;;5006715;28;20798;-49
2023/09/18 05:04:56;;;;;;;475.87;258.63;;;;;;;;;;5009281;28;20238;-47
2023/09/18 05:07:22;;;;;;;497.17;263.60;;;;;;;;;;5014582;28;20220;-50
2023/09/18 05:09:48;;;;;;;474.03;250.53;;;;;;;;;;5008519;28;20253;-50
2023/09/18 05:12:15;;;;;;;540.87;298.50;;;;;;;;;;4996677;28;20229;-51
2023/09/18 05:14:41;;;;;;;468.57;254.03;;;;;;;;;;5007832;28;20606;-51
2023/09/18 05:17:12;;;;;;;474.30;251.23;;;;;;;;;;5013218;28;20588;-50
2023/09/18 05:19:37;;;;;;;468.97;253.90;;;;;;;;;;5006562;28;20231;-50
2023/09/18 05:22:03;;;;;;;584.13;344.30;;;;;;;;;;4986163;28;20207;-51
2023/09/18 05:24:29;;;;;;;489.20;261.70;;;;;;;;;;4964055;28;20188;-50
2023/09/18 05:26:55;;;;;;;443.50;231.70;;;;;;;;;;4967908;28;20554;-50
2023/09/18 05:29:21;;;;;;;536.57;295.80;;;;;;;;;;4976973;28;20224;-50
2023/09/18 05:31:47;;;;;;;520.47;284.27;;;;;;;;;;4967206;28;20449;-50
2023/09/18 05:34:13;;;;;;;504.63;270.40;;;;;;;;;;4980345;28;20219;-50
2023/09/18 05:36:39;;;;;;;529.17;295.03;;;;;;;;;;4975445;28;20271;-53
2023/09/18 05:39:11;;;;;;;469.27;249.50;;;;;;;;;;4985007;28;20220;-50
2023/09/18 05:41:37;;;;;;;465.13;252.53;;;;;;;;;;4985711;28;20951;-50
2023/09/18 05:44:04;;;;;;;524.60;282.77;;;;;;;;;;4962994;28;20223;-50
2023/09/18 05:46:31;;;;;;;528.10;290.47;;;;;;;;;;4975784;28;20228;-50
2023/09/18 05:48:58;;;;;;;504.77;273.90;;;;;;;;;;4989607;28;20212;-50
2023/09/18 05:51:24;;;;;;;501.60;272.23;;;;;;;;;;4981570;28;20301;-51
2023/09/18 05:53:50;;;;;;;462.97;244.80;;;;;;;;;;4994993;28;20213;-49
2023/09/18 05:56:17;;;;;;;508.20;276.67;;;;;;;;;;4992738;28;20216;-49
2023/09/18 05:58:43;;;;;;;509.53;272.93;;;;;;;;;;4988430;28;21380;-49
2023/09/18 06:01:09;;;;;;;449.50;234.63;;;;;;;;;;5006216;28;20224;-49
2023/09/18 06:03:35;;;;;;;524.93;283.47;;;;;;;;;;5001794;28;20219;-49
2023/09/18 06:06:04;;;;;;;443.17;229.83;;;;;;;;;;5000186;28;20231;-49
2023/09/18 06:08:31;;;;;;;506.17;274.93;;;;;;;;;;4994878;28;20239;-49
2023/09/18 06:10:57;;;;;;;486.47;259.23;;;;;;;;;;4968175;28;20841;-48
2023/09/18 06:13:25;;;;;;;556.00;315.13;;;;;;;;;;4973128;28;20224;-49
2023/09/18 06:15:52;;;;;;;437.13;229.03;;;;;;;;;;4985302;28;20467;-49
2023/09/18 06:18:20;;;;;;;560.30;313.50;;;;;;;;;;4970345;28;20200;-49
2023/09/18 06:20:46;;;;;;;511.57;279.33;;;;;;;;;;4954649;28;20342;-50
2023/09/18 06:23:12;;;;;;;510.33;275.67;;;;;;;;;;4972989;28;20227;-48
2023/09/18 06:25:38;;;;;;;556.40;310.73;;;;;;;;;;4975290;28;20835;-48
2023/09/18 06:28:04;;;;;;;501.83;268.10;;;;;;;;;;4985780;28;20220;-48
2023/09/18 06:30:30;;;;;;;548.53;306.43;;;;;;;;;;4985257;28;20936;-48
2023/09/18 06:32:57;;;;;;;735.50;445.03;;;;;;;;;;4967491;28;20219;-49
2023/09/18 06:35:23;;;;;;;537.70;302.60;;;;;;;;;;4981400;28;20208;-48
2023/09/18 06:37:48;;;;;;;524.47;295.20;;;;;;;;;;4968964;28;20801;-48
2023/09/18 06:40:14;;;;;;;487.07;273.77;;;;;;;;;;5013728;28;20216;-49
2023/09/18 06:42:40;;;;;;;458.90;256.00;;;;;;;;;;5014690;28;20215;-48
2023/09/18 06:45:07;;;;;;;467.63;261.00;;;;;;;;;;5007085;28;20906;-49
2023/09/18 06:47:33;;;;;;;483.50;270.83;;;;;;;;;;5008508;28;20274;-49
2023/09/18 06:50:04;;;;;;;515.17;268.17;;;;;;;;;;4991647;28;20327;-49
2023/09/18 06:52:30;;;;;;;603.17;298.00;;;;;;;;;;4952136;28;20208;-49
2023/09/18 06:54:57;;;;;;;453.03;240.83;;;;;;;;;;4981726;28;20259;-49
2023/09/18 06:57:24;;;;;;;549.00;277.77;;;;;;;;;;4965661;28;29130;-49
2023/09/18 06:59:50;;;;;;;580.17;299.47;;;;;;;;;;4985012;28;23002;-49
2023/09/18 07:02:16;;;;;;;521.93;270.33;;;;;;;;;;4998852;28;21538;-49
2023/09/18 07:04:45;;;;;;;483.93;255.77;;;;;;;;;;5001108;28;20512;-49
2023/09/18 07:07:15;;;;;;;511.60;265.60;;;;;;;;;;5001541;28;20292;-48
2023/09/18 07:09:43;;;;;;;584.00;332.73;;;;;;;;;;4970818;28;20847;-49
2023/09/18 07:12:09;;;;;;;558.07;321.57;;;;;;;;;;4986442;28;20236;-49
2023/09/18 07:14:36;;;;;;;570.70;325.47;;;;;;;;;;4981782;28;20251;-49
2023/09/18 07:17:03;;;;;;;522.37;293.43;;;;;;;;;;4980584;28;20607;-50
2023/09/18 07:19:29;;;;;;;527.33;295.43;;;;;;;;;;4972904;28;20242;-51
2023/09/18 07:21:55;;;;;;;482.63;262.00;;;;;;;;;;4979112;28;20287;-50
2023/09/18 07:24:21;;;;;;;524.13;288.97;;;;;;;;;;4975715;28;20516;-50
2023/09/18 07:26:48;;;;;;;548.53;312.33;;;;;;;;;;4972234;28;20285;-50
2023/09/18 07:29:15;;;;;;;500.30;276.30;;;;;;;;;;4979465;28;20574;-50
2023/09/18 07:31:41;;;;;;;520.00;293.10;;;;;;;;;;4990533;28;20480;-50
2023/09/18 07:34:07;;;;;;;576.43;336.87;;;;;;;;;;4982564;28;20224;-50
2023/09/18 07:36:33;;;;;;;506.70;280.97;;;;;;;;;;4980178;28;20185;-50
2023/09/18 07:38:59;;;;;;;509.33;283.33;;;;;;;;;;4991464;28;20798;-50
2023/09/18 07:41:25;;;;;;;516.17;290.80;;;;;;;;;;4991951;28;20224;-50
2023/09/18 07:43:51;;;;;;;511.13;283.77;;;;;;;;;;4992461;28;20227;-50
2023/09/18 07:46:17;;;;;;;491.57;276.90;;;;;;;;;;4980308;28;20324;-50
2023/09/18 07:48:43;;;;;;;681.57;417.63;;;;;;;;;;4998047;28;20219;-50
2023/09/18 07:51:12;;;;;;;445.40;246.17;;;;;;;;;;4991770;28;20213;-50
2023/09/18 07:53:38;;;;;;;480.03;269.67;;;;;;;;;;4988652;28;20768;-50
2023/09/18 07:56:04;;;;;;;532.83;304.00;;;;;;;;;;4976052;28;23850;-50
2023/09/18 07:58:30;;;;;;;484.40;269.83;;;;;;;;;;4992018;28;28063;-50
2023/09/18 08:00:57;;;;;;;481.00;267.00;;;;;;;;;;5011361;28;20510;-50
2023/09/18 08:03:24;;;;;;;544.07;314.47;;;;;;;;;;4986592;28;20246;-50
2023/09/18 08:05:52;;;;;;;468.00;261.40;;;;;;;;;;4994077;28;20746;-50
2023/09/18 08:08:17;;;;;;;506.37;291.53;;;;;;;;;;4992055;28;20246;-50
2023/09/18 08:10:44;;;;;;;522.43;302.07;;;;;;;;;;4991027;28;20260;-50
2023/09/18 08:13:10;;;;;;;501.70;289.37;;;;;;;;;;4997665;28;20452;-50
2023/09/18 08:15:35;;;;;;;479.47;275.40;;;;;;;;;;5004369;28;20244;-50
2023/09/18 08:18:01;;;;;;;466.83;270.63;;;;;;;;;;4997858;28;20780;-50
2023/09/18 08:20:28;;;;;;;577.20;349.83;;;;;;;;;;4993051;28;20295;-50
2023/09/18 08:22:54;;;;;;;452.93;253.20;;;;;;;;;;4998073;28;20273;-50
2023/09/18 08:25:20;;;;;;;482.13;271.87;;;;;;;;;;4988694;28;20216;-50
2023/09/18 08:27:47;;;;;;;514.77;296.47;;;;;;;;;;4966038;28;20277;-50
2023/09/18 08:30:13;;;;;;;517.70;310.90;;;;;;;;;;4993760;28;20183;-50
2023/09/18 08:32:40;;;;;;;506.73;300.77;;;;;;;;;;4992969;28;20251;-50
2023/09/18 08:35:06;;;;;;;502.83;295.77;;;;;;;;;;4965668;28;20256;-50
2023/09/18 08:37:33;;;;;;;562.83;345.83;;;;;;;;;;4983531;28;20348;-50
2023/09/18 08:40:00;;;;;;;569.67;343.83;;;;;;;;;;4973021;28;20337;-50
2023/09/18 08:42:27;;;;;;;544.40;326.20;;;;;;;;;;4986170;28;20204;-51
2023/09/18 08:44:55;;;;;;;553.07;339.97;;;;;;;;;;4981324;28;22860;-50
2023/09/18 08:47:21;;;;;;;521.63;317.53;;;;;;;;;;4971720;28;20520;-50
2023/09/18 08:49:49;;;;;;;502.53;303.93;;;;;;;;;;4985520;28;20373;-50
2023/09/18 08:52:16;;;;;;;571.30;348.33;;;;;;;;;;4983072;28;20583;-50
2023/09/18 08:54:44;;;;;;;538.07;332.20;;;;;;;;;;4988707;28;20412;-50
2023/09/18 08:57:09;;;;;;;482.53;298.83;;;;;;;;;;4989272;28;20879;-50
2023/09/18 08:59:36;;;;;;;528.63;324.30;;;;;;;;;;4980480;28;20416;-50
2023/09/18 09:02:02;;;;;;;555.73;351.60;;;;;;;;;;4992111;28;20873;-50
2023/09/18 09:04:28;;;;;;;513.60;316.63;;;;;;;;;;4995950;28;20358;-50
2023/09/18 09:06:57;;;;;;;470.63;295.70;;;;;;;;;;5006762;28;20184;-50
2023/09/18 09:09:23;;;;;;;574.53;368.63;;;;;;;;;;4994407;28;21664;-50
2023/09/18 09:11:52;;;;;;;465.23;282.07;;;;;;;;;;5001463;28;20469;-50
2023/09/18 09:14:21;;;;;;;479.53;298.47;;;;;;;;;;4999225;28;20262;-50
2023/09/18 09:16:50;;;;;;;466.03;286.33;;;;;;;;;;4995865;28;20574;-50
2023/09/18 09:19:17;;;;;;;547.27;352.70;;;;;;;;;;4974612;28;20633;-50
2023/09/18 09:21:44;;;;;;;553.27;358.97;;;;;;;;;;4986170;28;20804;-51
2023/09/18 09:24:13;;;;;;;489.20;312.17;;;;;;;;;;4997847;28;20223;-50
2023/09/18 09:26:43;;;;;;;521.63;338.07;;;;;;;;;;4995135;28;20242;-51
2023/09/18 09:29:21;;;;;;;548.97;359.43;;;;;;;;;;4986530;28;22334;-50
2023/09/18 09:31:47;;;;;;;481.33;315.23;;;;;;;;;;5000157;28;20274;-50
2023/09/18 09:34:24;;;;;;;502.47;332.87;;;;;;;;;;4999575;28;20276;-51
2023/09/18 09:36:54;;;;;;;506.23;338.90;;;;;;;;;;4999995;28;20321;-50
2023/09/18 09:39:24;;;;;;;514.57;341.03;;;;;;;;;;4984565;28;20192;-51
2023/09/18 09:41:50;;;;;;;490.17;330.43;;;;;;;;;;4977184;28;20256;-50
2023/09/18 09:44:16;;;;;;;611.07;408.10;;;;;;;;;;4982563;28;20733;-51
2023/09/18 09:46:48;;;;;;;522.80;354.07;;;;;;;;;;4974830;28;20223;-50
2023/09/18 09:49:15;;;;;;;567.17;380.27;;;;;;;;;;4980445;28;20239;-50
2023/09/18 09:51:42;;;;;;;560.87;387.33;;;;;;;;;;4983468;28;20297;-50
2023/09/18 09:54:08;;;;;;;535.80;360.03;;;;;;;;;;4968633;28;20575;-50
2023/09/18 09:56:48;;;;;;;537.87;366.17;;;;;;;;;;4967202;28;22616;-50
2023/09/18 09:59:15;;;;;;;565.03;386.60;;;;;;;;;;4975960;28;20243;-51
2023/09/18 10:01:43;;;;;;;610.13;423.13;;;;;;;;;;4967815;28;22802;-50
2023/09/18 10:04:13;;;;;;;562.43;391.53;;;;;;;;;;4968791;28;20622;-50
2023/09/18 10:06:42;;;;;;;584.57;399.33;;;;;;;;;;4958568;28;20523;-51
2023/09/18 10:09:10;;;;;;;570.07;393.10;;;;;;;;;;4977966;28;20250;-50
2023/09/18 10:11:39;;;;;;;536.63;357.67;;;;;;;;;;4997527;23;20426;-61
2023/09/18 10:14:10;;;;;;;577.90;382.00;;;;;;;;;;5003780;28;20227;-62
2023/09/18 10:16:38;;;;;;;553.07;367.73;;;;;;;;;;5003037;28;20294;-63
2023/09/18 10:19:16;;;;;;;527.67;356.73;;;;;;;;;;5004661;28;20187;-63
2023/09/18 10:21:48;;;;;;;522.23;363.03;;;;;;;;;;4997182;28;20208;-63
2023/09/18 10:24:20;;;;;;;502.57;348.90;;;;;;;;;;4997954;28;20224;-65
2023/09/18 10:26:51;;;;;;;478.70;331.43;;;;;;;;;;5002438;28;20225;-64
2023/09/18 10:29:19;;;;;;;558.90;376.80;;;;;;;;;;4980452;28;20270;-68
2023/09/18 10:31:46;;;;;;;524.10;358.63;;;;;;;;;;4999685;28;20669;-66
2023/09/18 10:34:14;;;;;;;520.60;363.30;;;;;;;;;;4999307;28;20646;-66
2023/09/18 10:36:41;;;;;;;613.43;417.60;;;;;;;;;;5001687;28;20211;-59
2023/09/18 10:39:12;;;;;;;549.60;380.83;;;;;;;;;;5004647;28;20222;-60
2023/09/18 10:41:38;;;;;;;599.00;415.73;;;;;;;;;;4983488;28;20225;-60
2023/09/18 10:44:04;;;;;;;526.23;363.33;;;;;;;;;;5001303;28;21507;-60
2023/09/18 10:46:31;;;;;;;543.90;374.37;;;;;;;;;;5011872;28;20208;-60
2023/09/18 10:48:57;;;;;;;536.03;373.13;;;;;;;;;;5014285;28;20176;-60
2023/09/18 10:51:24;;;;;;;509.40;365.87;;;;;;;;;;5000955;28;20251;-59
2023/09/18 10:53:52;;;;;;;564.40;395.10;;;;;;;;;;5002808;28;20779;-59
2023/09/18 10:56:19;;;;;;;538.60;378.93;;;;;;;;;;4997453;28;20223;-60
2023/09/18 10:58:45;;;;;;;542.90;381.73;;;;;;;;;;4996235;28;20315;-59
2023/09/18 11:01:12;;;;;;;546.17;373.87;;;;;;;;;;5004561;28;20758;-59
2023/09/18 11:03:38;;;;;;;602.87;424.27;;;;;;;;;;4998482;28;20208;-58
2023/09/18 11:06:05;;;;;;;516.30;365.00;;;;;;;;;;4984702;28;20749;-60
2023/09/18 11:08:33;;;;;;;576.97;406.20;;;;;;;;;;5003052;28;20342;-60
2023/09/18 11:11:04;;;;;;;524.03;369.63;;;;;;;;;;5006376;28;20289;-60
2023/09/18 11:13:31;;;;;;;541.87;386.87;;;;;;;;;;5006108;28;20227;-59
2023/09/18 11:16:20;;;;;;;512.67;362.73;;;;;;;;;;5013195;28;20752;-59
2023/09/18 11:18:52;;;;;;;507.77;365.57;;;;;;;;;;4993461;28;20196;-59
2023/09/18 11:21:19;;;;;;;538.57;383.60;;;;;;;;;;5007706;28;20709;-60
2023/09/18 11:23:45;;;;;;;610.10;426.60;;;;;;;;;;4992626;28;20767;-64
2023/09/18 11:26:11;;;;;;;546.83;385.67;;;;;;;;;;4993590;28;20231;-64
2023/09/18 11:28:38;;;;;;;587.93;417.50;;;;;;;;;;4997542;28;20732;-64
2023/09/18 11:31:04;;;;;;;543.00;394.50;;;;;;;;;;5005526;28;20768;-63
2023/09/18 11:33:44;;;;;;;520.50;379.17;;;;;;;;;;5012941;28;20177;-64
2023/09/18 11:36:14;;;;;;;547.20;388.23;;;;;;;;;;4999739;28;20208;-64
2023/09/18 11:38:57;;;;;;;528.77;379.77;;;;;;;;;;5009324;28;20219;-64
2023/09/18 11:41:27;;;;;;;514.67;381.23;;;;;;;;;;5006982;28;20582;-64
2023/09/18 11:43:54;;;;;;;512.17;378.90;;;;;;;;;;5010911;28;20212;-64
2023/09/18 11:46:20;;;;;;;535.10;392.27;;;;;;;;;;5004987;28;20295;-64
2023/09/18 11:48:50;;;;;;;554.87;400.97;;;;;;;;;;5005880;28;20263;-63
2023/09/18 11:51:21;;;;;;;511.57;394.37;;;;;;;;;;4998411;28;20193;-64
2023/09/18 11:53:48;;;;;;;568.17;407.83;;;;;;;;;;4979647;28;20401;-64
2023/09/18 11:56:17;;;;;;;550.70;403.60;;;;;;;;;;4997829;28;20338;-64
2023/09/18 11:58:50;;;;;;;543.60;400.43;;;;;;;;;;4990891;28;20891;-66
2023/09/18 12:01:16;;;;;;;558.30;411.03;;;;;;;;;;4999662;28;20678;-64
2023/09/18 12:03:42;;;;;;;558.13;405.97;;;;;;;;;;4998418;28;20243;-64
2023/09/18 12:06:17;;;;;;;555.20;401.73;;;;;;;;;;4993848;28;20232;-65
2023/09/18 12:08:44;;;;;;;551.83;397.90;;;;;;;;;;5002744;28;20694;-64
2023/09/18 12:11:16;;;;;;;524.30;382.90;;;;;;;;;;4977934;28;20606;-64
2023/09/18 12:13:42;;;;;;;595.63;424.33;;;;;;;;;;4992537;28;20212;-64
2023/09/18 12:16:09;;;;;;;532.67;383.03;;;;;;;;;;4998698;28;21127;-64
2023/09/18 12:18:37;;;;;;;572.33;400.80;;;;;;;;;;5003897;28;20800;-64
2023/09/18 12:21:06;;;;;;;531.40;381.47;;;;;;;;;;5001880;28;20220;-64
2023/09/18 12:23:43;;;;;;;551.47;389.23;;;;;;;;;;5004297;28;20228;-64
2023/09/18 12:26:12;;;;;;;509.37;366.87;;;;;;;;;;5010392;28;20497;-64
2023/09/18 12:28:39;;;;;;;542.10;384.70;;;;;;;;;;5008007;28;20257;-64
2023/09/18 12:31:05;;;;;;;548.53;391.03;;;;;;;;;;5003373;28;20386;-64
2023/09/18 12:33:34;;;;;;;507.17;360.80;;;;;;;;;;5008229;28;20216;-64
2023/09/18 12:36:00;;;;;;;537.57;382.30;;;;;;;;;;5011658;28;20295;-64
2023/09/18 12:38:27;;;;;;;526.70;374.40;;;;;;;;;;5009359;28;20696;-64
2023/09/18 12:40:54;;;;;;;558.37;398.37;;;;;;;;;;5005746;28;22462;-64
2023/09/18 12:43:22;;;;;;;533.20;368.97;;;;;;;;;;5010675;28;20232;-64
2023/09/18 12:45:49;;;;;;;576.37;406.43;;;;;;;;;;4991529;28;20196;-64
2023/09/18 12:48:15;;;;;;;560.00;393.00;;;;;;;;;;4998373;28;20189;-64
2023/09/18 12:50:41;;;;;;;549.13;386.40;;;;;;;;;;5000984;28;20228;-65
2023/09/18 12:53:12;;;;;;;535.30;377.17;;;;;;;;;;5009395;28;20247;-65
2023/09/18 12:55:38;;;;;;;564.20;400.97;;;;;;;;;;5007555;28;20231;-63
2023/09/18 12:58:09;;;;;;;537.13;386.40;;;;;;;;;;5011176;28;20274;-64
2023/09/18 13:00:36;;;;;;;550.57;390.10;;;;;;;;;;5007352;28;20213;-63
2023/09/18 13:03:04;;;;;;;544.93;390.77;;;;;;;;;;5002650;28;20598;-63
2023/09/18 13:05:32;;;;;;;527.90;382.43;;;;;;;;;;5007578;28;20722;-63
2023/09/18 13:08:02;;;;;;;489.87;372.27;;;;;;;;;;5007202;28;20219;-63
2023/09/18 13:10:28;;;;;;;569.97;418.97;;;;;;;;;;5000260;28;22258;-63
2023/09/18 13:12:55;;;;;;;580.53;420.03;;;;;;;;;;5000758;28;20257;-63
2023/09/18 13:15:28;;;;;;;533.27;401.77;;;;;;;;;;4997664;28;20188;-64
2023/09/18 13:17:54;;;;;;;572.47;421.13;;;;;;;;;;4991566;28;20238;-63
2023/09/18 13:20:24;;;;;;;558.73;416.47;;;;;;;;;;4992676;28;20231;-63
2023/09/18 13:22:51;;;;;;;574.30;434.90;;;;;;;;;;4997735;28;20875;-63
2023/09/18 13:25:22;;;;;;;555.60;428.63;;;;;;;;;;4996073;28;20352;-63
2023/09/18 13:27:48;;;;;;;561.50;417.53;;;;;;;;;;5008603;28;20197;-62
2023/09/18 13:30:16;;;;;;;550.90;413.43;;;;;;;;;;5012932;28;20189;-63
2023/09/18 13:32:43;;;;;;;541.87;411.20;;;;;;;;;;5002735;28;20274;-66
2023/09/18 13:35:11;;;;;;;536.77;402.50;;;;;;;;;;5008387;28;20208;-63
2023/09/18 13:37:37;;;;;;;549.17;412.13;;;;;;;;;;4991996;28;20219;-63
2023/09/18 13:40:06;;;;;;;570.23;430.83;;;;;;;;;;5007351;28;20215;-63
2023/09/18 13:42:32;;;;;;;507.47;380.10;;;;;;;;;;5011752;28;20219;-63
2023/09/18 13:45:01;;;;;;;529.63;391.30;;;;;;;;;;5005744;28;20281;-60
2023/09/18 13:47:28;;;;;;;536.77;390.23;;;;;;;;;;5002953;28;20333;-60
2023/09/18 13:49:59;;;;;;;517.53;390.43;;;;;;;;;;5015969;28;20219;-60
2023/09/18 13:52:25;;;;;;;545.50;394.23;;;;;;;;;;5006817;28;20219;-60
2023/09/18 13:54:52;;;;;;;541.83;387.33;;;;;;;;;;5001257;28;20176;-59